Time;durP1;ratioP1;P1;durP2;ratioP2;P2;SDS_P1;SDS_P2;PMS_P1;PMS_P2;Temp;Humidity;BMP_temperature;BMP_pressure;BME280_temperature;BME280_humidity;BME280_pressure;Samples;Min_cycle;Max_cycle;Signal;HPM_P1;HPM_P2
2022/11/30 00:00:30;;;;;;;39.73;20.30;;;5.40;74.00;;;;;;5108787;27;46075;-66
2022/11/30 00:02:56;;;;;;;38.60;20.90;;;5.40;73.50;;;;;;5105727;27;46515;-66
2022/11/30 00:05:23;;;;;;;42.57;21.30;;;5.40;73.40;;;;;;5110498;27;45880;-66
2022/11/30 00:07:49;;;;;;;41.10;19.60;;;5.50;73.30;;;;;;5108295;27;46675;-68
2022/11/30 00:10:15;;;;;;;39.50;19.33;;;5.50;73.20;;;;;;5111998;27;46455;-65
2022/11/30 00:12:42;;;;;;;36.37;18.93;;;5.50;72.90;;;;;;5109593;27;46903;-65
2022/11/30 00:15:13;;;;;;;40.17;19.93;;;5.50;72.90;;;;;;5113211;27;46476;-65
2022/11/30 00:17:39;;;;;;;35.60;19.40;;;5.50;72.80;;;;;;5112658;27;45892;-70
2022/11/30 00:20:06;;;;;;;35.77;18.90;;;5.50;72.80;;;;;;5106954;27;46780;-70
2022/11/30 00:22:31;;;;;;;32.10;18.23;;;5.50;72.70;;;;;;5106717;27;46571;-68
2022/11/30 00:24:59;;;;;;;37.13;18.47;;;5.50;72.60;;;;;;5106304;27;46318;-67
2022/11/30 00:27:26;;;;;;;40.63;19.30;;;5.40;72.60;;;;;;5107351;27;46336;-69
2022/11/30 00:29:52;;;;;;;32.13;16.23;;;5.40;72.80;;;;;;5109567;27;46530;-70
2022/11/30 00:32:17;;;;;;;32.60;17.40;;;5.30;73.00;;;;;;5105700;27;47952;-68
2022/11/30 00:34:43;;;;;;;36.23;19.10;;;5.30;73.30;;;;;;5110156;27;46441;-68
2022/11/30 00:37:08;;;;;;;35.70;17.73;;;5.20;73.20;;;;;;5110570;27;46476;-68
2022/11/30 00:39:34;;;;;;;36.63;19.83;;;5.30;73.10;;;;;;5110046;27;46696;-67
2022/11/30 00:41:59;;;;;;;36.23;18.83;;;5.30;73.10;;;;;;5109420;27;46527;-68
2022/11/30 00:44:25;;;;;;;39.70;19.20;;;5.30;73.10;;;;;;5109472;27;46402;-68
2022/11/30 00:46:51;;;;;;;34.70;18.20;;;5.30;72.90;;;;;;5109210;27;46471;-69
2022/11/30 00:49:16;;;;;;;37.40;18.03;;;5.40;72.60;;;;;;5106093;27;46408;-69
2022/11/30 00:51:42;;;;;;;42.57;19.13;;;5.40;72.30;;;;;;5140716;27;48361;-69
2022/11/30 00:54:07;;;;;;;41.60;19.80;;;5.40;73.50;;;;;;5102653;27;46466;-68
2022/11/30 00:56:33;;;;;;;38.47;18.67;;;5.40;72.60;;;;;;5101359;27;46557;-68
2022/11/30 00:58:58;;;;;;;44.63;20.70;;;5.30;72.70;;;;;;5106844;27;46382;-68
2022/11/30 01:01:24;;;;;;;47.03;20.63;;;5.30;72.80;;;;;;5106637;27;46327;-67
2022/11/30 01:03:50;;;;;;;40.87;20.37;;;5.30;72.70;;;;;;5104264;27;46570;-72
2022/11/30 01:06:15;;;;;;;48.17;23.53;;;5.40;72.60;;;;;;5103089;27;46609;-68
2022/11/30 01:08:41;;;;;;;44.37;22.13;;;5.50;72.40;;;;;;5108061;27;46315;-67
2022/11/30 01:11:21;;;;;;;50.50;22.90;;;5.40;72.40;;;;;;5106768;27;46372;-69
2022/11/30 01:13:47;;;;;;;46.53;24.10;;;5.30;72.80;;;;;;5106641;27;46356;-70
2022/11/30 01:16:16;;;;;;;48.80;22.90;;;5.20;73.30;;;;;;5107468;27;46396;-67
2022/11/30 01:18:43;;;;;;;47.97;22.43;;;5.10;73.50;;;;;;5108908;27;46565;-67
2022/11/30 01:21:12;;;;;;;49.90;22.20;;;5.20;73.40;;;;;;5108029;27;49513;-68
2022/11/30 01:23:38;;;;;;;45.60;22.83;;;5.20;73.30;;;;;;5108458;27;46550;-68
2022/11/30 01:26:04;;;;;;;49.77;23.30;;;5.10;72.70;;;;;;5105850;27;46444;-70
2022/11/30 01:28:30;;;;;;;49.03;23.80;;;5.10;73.80;;;;;;5105400;27;46528;-71
2022/11/30 01:31:01;;;;;;;46.80;23.67;;;5.10;73.30;;;;;;5105708;27;46711;-68
2022/11/30 01:33:27;;;;;;;43.33;21.40;;;5.10;73.50;;;;;;5109736;27;46360;-67
2022/11/30 01:36:09;;;;;;;48.33;22.37;;;5.10;73.70;;;;;;5107179;27;46474;-71
2022/11/30 01:38:55;;;;;;;49.37;24.03;;;5.10;73.70;;;;;;5103160;27;46408;-68
2022/11/30 01:41:24;;;;;;;47.27;23.80;;;5.10;73.20;;;;;;5107465;27;46502;-68
2022/11/30 01:43:56;;;;;;;58.63;25.90;;;5.20;72.90;;;;;;5107491;27;46353;-69
2022/11/30 01:46:30;;;;;;;52.00;22.63;;;5.20;72.60;;;;;;5103029;27;46427;-67
2022/11/30 01:49:19;;;;;;;48.13;23.40;;;5.20;72.60;;;;;;5102994;27;46516;-68
2022/11/30 01:51:59;;;;;;;46.57;22.23;;;5.20;72.40;;;;;;5106188;27;46482;-67
2022/11/30 01:54:40;;;;;;;44.60;22.70;;;5.20;72.10;;;;;;5105800;27;46545;-68
2022/11/30 01:57:18;;;;;;;56.50;23.13;;;5.30;72.00;;;;;;5106290;27;46447;-67
2022/11/30 01:59:44;;;;;;;44.00;21.43;;;5.30;72.00;;;;;;5106658;27;46500;-69
2022/11/30 02:02:10;;;;;;;43.93;21.87;;;5.30;72.00;;;;;;5107372;27;46712;-68
2022/11/30 02:04:37;;;;;;;42.13;20.37;;;5.30;72.10;;;;;;5105552;27;46301;-69
2022/11/30 02:07:06;;;;;;;41.73;21.73;;;5.30;72.00;;;;;;5105190;27;46505;-69
2022/11/30 02:09:37;;;;;;;50.17;22.43;;;5.20;72.20;;;;;;5100885;27;46695;-69
2022/11/30 02:12:06;;;;;;;42.53;23.10;;;5.20;72.20;;;;;;5105551;27;46678;-69
2022/11/30 02:14:44;;;;;;;42.80;21.27;;;5.20;72.20;;;;;;5103751;27;46362;-67
2022/11/30 02:17:43;;;;;;;38.33;19.97;;;5.20;72.40;;;;;;5106291;27;46442;-67
2022/11/30 02:20:27;;;;;;;49.03;22.80;;;5.10;72.50;;;;;;5107350;27;46418;-68
2022/11/30 02:23:13;;;;;;;47.77;22.27;;;5.00;72.80;;;;;;5106434;27;46558;-67
2022/11/30 02:25:56;;;;;;;48.58;23.02;;;5.10;72.70;;;;;;5103453;27;46335;-68
2022/11/30 02:28:40;;;;;;;56.80;24.07;;;5.10;72.60;;;;;;5103987;27;46442;-69
2022/11/30 02:31:10;;;;;;;46.60;22.07;;;5.10;72.40;;;;;;5106062;27;46414;-68
2022/11/30 02:33:37;;;;;;;53.40;25.77;;;5.10;72.50;;;;;;5104065;27;46410;-68
2022/11/30 02:36:06;;;;;;;55.00;24.63;;;5.00;71.70;;;;;;5105216;27;46490;-70
2022/11/30 02:38:32;;;;;;;60.10;25.70;;;5.00;72.70;;;;;;5105164;27;46538;-68
2022/11/30 02:40:57;;;;;;;53.13;24.37;;;5.00;72.70;;;;;;5106538;27;46595;-68
2022/11/30 02:43:25;;;;;;;58.60;26.30;;;4.90;72.80;;;;;;5100720;27;46422;-69
2022/11/30 02:46:21;;;;;;;60.90;24.73;;;4.90;73.30;;;;;;5105866;27;46491;-67
2022/11/30 02:49:04;;;;;;;51.70;24.70;;;4.80;72.90;;;;;;5105899;27;46587;-68
2022/11/30 02:51:32;;;;;;;44.10;22.23;;;4.90;73.00;;;;;;5107730;27;46370;-67
2022/11/30 02:53:57;;;;;;;46.50;22.30;;;4.80;73.50;;;;;;5107309;27;46044;-68
2022/11/30 02:56:24;;;;;;;46.07;21.60;;;4.80;72.90;;;;;;5103804;27;46540;-68
2022/11/30 02:58:50;;;;;;;47.87;21.40;;;4.80;73.00;;;;;;5105352;27;46045;-70
2022/11/30 03:01:16;;;;;;;44.03;21.17;;;4.80;73.10;;;;;;5099499;27;46587;-70
2022/11/30 03:03:43;;;;;;;44.67;19.57;;;4.70;73.40;;;;;;5099743;27;46500;-67
2022/11/30 03:06:09;;;;;;;50.38;20.48;;;4.70;73.40;;;;;;5106698;27;46344;-71
2022/11/30 03:08:34;;;;;;;50.70;19.77;;;4.80;72.90;;;;;;5104486;27;46573;-68
2022/11/30 03:11:02;;;;;;;39.93;18.47;;;4.80;73.10;;;;;;5101372;27;46833;-69
2022/11/30 03:13:29;;;;;;;37.10;18.50;;;4.80;72.40;;;;;;5102334;27;47076;-69
2022/11/30 03:15:55;;;;;;;42.72;19.83;;;4.80;72.60;;;;;;5099254;27;46545;-67
2022/11/30 03:18:20;;;;;;;40.90;17.90;;;4.70;72.70;;;;;;5099376;27;46685;-66
2022/11/30 03:20:46;;;;;;;36.43;17.87;;;4.70;72.90;;;;;;5104799;27;46485;-68
2022/11/30 03:23:12;;;;;;;43.17;17.97;;;4.70;73.30;;;;;;5103139;27;46684;-68
2022/11/30 03:25:37;;;;;;;37.30;17.57;;;4.70;73.40;;;;;;5101531;27;46421;-68
2022/11/30 03:28:03;;;;;;;36.93;16.97;;;4.70;73.20;;;;;;5101564;27;46656;-67
2022/11/30 03:30:29;;;;;;;37.17;16.60;;;4.60;72.90;;;;;;5102792;27;46406;-68
2022/11/30 03:32:54;;;;;;;38.17;16.23;;;4.60;73.20;;;;;;5106080;27;46375;-70
2022/11/30 03:35:20;;;;;;;39.30;16.97;;;4.70;72.90;;;;;;5099925;27;46577;-69
2022/11/30 03:37:46;;;;;;;37.17;16.33;;;4.70;72.40;;;;;;5100908;27;46489;-69
2022/11/30 03:40:12;;;;;;;36.73;16.27;;;4.70;72.30;;;;;;5108563;27;46599;-68
2022/11/30 03:42:37;;;;;;;40.67;16.93;;;4.70;72.50;;;;;;5106773;27;48569;-68
2022/11/30 03:45:04;;;;;;;43.43;17.00;;;4.80;72.20;;;;;;5106698;27;45915;-67
2022/11/30 03:47:29;;;;;;;37.40;16.47;;;4.80;72.20;;;;;;5101642;27;46626;-68
2022/11/30 03:49:55;;;;;;;39.87;18.60;;;4.70;72.60;;;;;;5103549;27;46518;-67
2022/11/30 03:52:20;;;;;;;38.57;17.60;;;4.70;72.50;;;;;;5103529;27;46517;-68
2022/11/30 03:54:46;;;;;;;40.53;17.27;;;4.80;72.30;;;;;;5108477;27;46782;-67
2022/11/30 03:57:12;;;;;;;44.00;19.60;;;4.80;72.00;;;;;;5106353;27;46635;-68
2022/11/30 03:59:37;;;;;;;43.83;18.87;;;4.80;72.30;;;;;;5103434;27;46480;-66
2022/11/30 04:02:03;;;;;;;42.00;18.93;;;4.70;72.80;;;;;;5104949;27;47384;-70
2022/11/30 04:04:28;;;;;;;49.57;19.73;;;4.70;72.90;;;;;;5105059;27;46405;-67
2022/11/30 04:06:54;;;;;;;40.70;18.20;;;4.70;72.20;;;;;;5108070;27;46599;-67
2022/11/30 04:09:19;;;;;;;37.67;17.57;;;4.70;72.40;;;;;;5105261;27;46522;-68
2022/11/30 04:11:45;;;;;;;34.83;17.03;;;4.60;72.70;;;;;;5102691;27;46371;-68
2022/11/30 04:14:11;;;;;;;41.90;18.90;;;4.60;72.60;;;;;;5102419;27;46489;-68
2022/11/30 04:16:36;;;;;;;45.63;21.00;;;4.60;72.50;;;;;;5102919;27;46461;-67
2022/11/30 04:19:02;;;;;;;55.47;21.10;;;4.60;72.90;;;;;;5105687;27;46583;-69
2022/11/30 04:21:28;;;;;;;45.57;19.57;;;4.50;73.20;;;;;;5105298;27;47492;-68
2022/11/30 04:23:53;;;;;;;52.40;20.67;;;4.50;73.30;;;;;;5102549;27;46817;-69
2022/11/30 04:26:20;;;;;;;44.47;18.90;;;4.60;71.90;;;;;;5105419;27;45902;-70
2022/11/30 04:28:45;;;;;;;58.10;22.83;;;4.60;72.80;;;;;;5105076;27;46409;-67
2022/11/30 04:31:11;;;;;;;65.23;28.77;;;4.60;72.60;;;;;;5106650;27;47192;-67
2022/11/30 04:33:37;;;;;;;62.30;28.25;;;4.60;72.60;;;;;;5103837;27;46799;-70
2022/11/30 04:36:05;;;;;;;65.10;28.13;;;4.50;73.20;;;;;;5103104;27;46454;-69
2022/11/30 04:38:31;;;;;;;63.33;23.37;;;4.50;73.20;;;;;;5105845;27;46553;-68
2022/11/30 04:40:57;;;;;;;58.60;21.73;;;4.60;72.80;;;;;;5109813;27;47289;-67
2022/11/30 04:43:23;;;;;;;56.47;22.37;;;4.60;72.40;;;;;;5106659;27;46384;-67
2022/11/30 04:45:49;;;;;;;57.27;21.70;;;4.70;72.00;;;;;;5110055;27;46474;-69
2022/11/30 04:48:16;;;;;;;59.43;23.50;;;4.60;72.30;;;;;;5107908;27;46680;-69
2022/11/30 04:50:42;;;;;;;50.70;20.37;;;4.60;72.50;;;;;;5109874;27;46528;-69
2022/11/30 04:53:07;;;;;;;52.00;21.60;;;4.60;72.30;;;;;;5109175;27;46336;-68
2022/11/30 04:55:34;;;;;;;53.37;21.67;;;4.70;72.30;;;;;;5105893;27;45845;-69
2022/11/30 04:58:00;;;;;;;54.73;21.37;;;4.60;72.40;;;;;;5108076;27;46404;-70
2022/11/30 05:00:25;;;;;;;84.67;33.10;;;4.60;72.30;;;;;;5109626;27;46318;-68
2022/11/30 05:02:51;;;;;;;60.33;23.77;;;4.60;72.30;;;;;;5107785;27;46358;-70
2022/11/30 05:05:17;;;;;;;51.53;21.13;;;4.80;72.20;;;;;;5108289;27;46473;-68
2022/11/30 05:07:42;;;;;;;60.23;21.23;;;4.90;71.90;;;;;;5106437;27;46310;-67
2022/11/30 05:10:09;;;;;;;49.37;19.97;;;4.90;71.80;;;;;;5111155;27;46440;-67
2022/11/30 05:12:34;;;;;;;51.47;21.10;;;4.90;72.00;;;;;;5102624;27;46426;-67
2022/11/30 05:15:00;;;;;;;63.37;27.33;;;4.80;71.80;;;;;;5105494;27;46472;-69
2022/11/30 05:17:25;;;;;;;62.63;22.57;;;4.90;72.00;;;;;;5106742;27;46573;-67
2022/11/30 05:19:51;;;;;;;54.20;24.17;;;4.90;72.00;;;;;;5108520;27;46524;-67
2022/11/30 05:22:17;;;;;;;52.00;21.30;;;4.90;71.90;;;;;;5105258;27;46978;-71
2022/11/30 05:24:42;;;;;;;50.70;19.57;;;4.90;71.80;;;;;;5104948;27;46422;-69
2022/11/30 05:27:08;;;;;;;52.53;21.30;;;4.90;72.10;;;;;;5106276;27;46328;-68
2022/11/30 05:29:34;;;;;;;50.30;19.80;;;4.80;72.30;;;;;;5107525;27;47198;-67
2022/11/30 05:32:01;;;;;;;40.30;16.80;;;4.80;72.50;;;;;;5104803;27;46696;-69
2022/11/30 05:34:27;;;;;;;40.83;17.88;;;4.70;72.50;;;;;;5106358;27;46472;-70
2022/11/30 05:36:53;;;;;;;40.83;18.13;;;4.70;72.60;;;;;;5104299;27;46404;-68
2022/11/30 05:39:18;;;;;;;40.60;18.30;;;4.70;72.50;;;;;;5106300;27;46510;-68
2022/11/30 05:41:44;;;;;;;43.03;18.00;;;4.70;72.50;;;;;;5103799;27;46489;-68
2022/11/30 05:44:10;;;;;;;34.47;16.83;;;4.60;72.60;;;;;;5106827;27;46459;-67
2022/11/30 05:46:36;;;;;;;33.73;14.80;;;4.70;72.50;;;;;;5100177;27;46455;-68
2022/11/30 05:49:01;;;;;;;37.47;16.17;;;4.60;72.50;;;;;;5105723;27;46535;-70
2022/11/30 05:51:27;;;;;;;31.33;13.73;;;4.70;72.60;;;;;;5109228;27;46502;-67
2022/11/30 05:53:52;;;;;;;33.90;16.03;;;4.70;72.40;;;;;;5103371;27;46485;-71
2022/11/30 05:56:20;;;;;;;38.43;13.80;;;4.60;72.40;;;;;;5109019;27;46701;-67
2022/11/30 05:58:46;;;;;;;30.80;15.30;;;4.60;72.30;;;;;;5099597;27;46559;-70
2022/11/30 06:01:19;;;;;;;40.45;16.80;;;4.50;72.50;;;;;;5103439;27;46316;-69
2022/11/30 06:03:44;;;;;;;34.20;15.10;;;4.50;72.70;;;;;;5104571;27;45855;-67
2022/11/30 06:06:10;;;;;;;32.97;15.90;;;4.40;72.90;;;;;;5105710;27;46599;-70
2022/11/30 06:08:35;;;;;;;32.63;16.07;;;4.40;73.10;;;;;;5107136;27;47304;-69
2022/11/30 06:11:01;;;;;;;32.53;16.17;;;4.40;73.10;;;;;;5104589;27;46414;-67
2022/11/30 06:13:27;;;;;;;32.63;16.07;;;4.40;73.10;;;;;;5108031;27;46030;-69
2022/11/30 06:15:53;;;;;;;30.27;14.83;;;4.40;73.20;;;;;;5107914;27;46470;-70
2022/11/30 06:18:19;;;;;;;36.23;16.63;;;4.40;73.10;;;;;;5105099;27;46531;-69
2022/11/30 06:20:44;;;;;;;29.00;14.20;;;4.40;73.10;;;;;;5105695;27;46459;-67
2022/11/30 06:23:10;;;;;;;34.47;16.53;;;4.40;73.10;;;;;;5107779;27;46438;-68
2022/11/30 06:25:35;;;;;;;32.90;15.33;;;4.30;73.10;;;;;;5108926;27;46456;-68
2022/11/30 06:28:01;;;;;;;27.10;12.83;;;4.30;73.00;;;;;;5104550;27;47129;-70
2022/11/30 06:30:27;;;;;;;29.33;13.83;;;4.30;73.10;;;;;;5103093;27;46559;-69
2022/11/30 06:32:52;;;;;;;26.77;12.50;;;4.30;73.00;;;;;;5105594;27;46663;-68
2022/11/30 06:35:18;;;;;;;31.60;13.73;;;4.20;72.90;;;;;;5106289;27;46664;-69
2022/11/30 06:37:44;;;;;;;33.17;15.10;;;4.20;72.90;;;;;;5106808;27;46418;-68
2022/11/30 06:40:11;;;;;;;34.88;14.60;;;4.30;73.00;;;;;;5107049;27;46490;-68
2022/11/30 06:42:38;;;;;;;30.25;14.18;;;4.30;72.60;;;;;;5103246;27;46489;-72
2022/11/30 06:45:05;;;;;;;38.53;15.93;;;4.30;72.20;;;;;;5103902;27;45968;-68
2022/11/30 06:47:31;;;;;;;30.37;15.00;;;4.30;72.10;;;;;;5106140;27;47331;-68
2022/11/30 06:49:56;;;;;;;33.33;14.10;;;4.30;72.20;;;;;;5104216;27;46361;-69
2022/11/30 06:52:22;;;;;;;28.03;14.77;;;4.30;72.20;;;;;;5105802;27;46453;-70
2022/11/30 06:54:49;;;;;;;31.03;13.97;;;4.20;72.30;;;;;;5107810;27;46655;-69
2022/11/30 06:57:15;;;;;;;30.57;15.17;;;4.20;72.30;;;;;;5107714;27;46568;-68
2022/11/30 06:59:41;;;;;;;39.50;15.77;;;4.30;72.20;;;;;;5106519;27;46442;-67
2022/11/30 07:02:15;;;;;;;31.80;14.83;;;4.30;72.00;;;;;;5102542;27;46612;-67
2022/11/30 07:04:41;;;;;;;31.10;16.08;;;4.30;71.70;;;;;;5104552;27;46757;-68
2022/11/30 07:07:07;;;;;;;30.27;14.53;;;4.30;71.90;;;;;;5104173;27;47497;-69
2022/11/30 07:09:35;;;;;;;31.97;14.93;;;4.40;71.80;;;;;;5108831;27;46307;-67
2022/11/30 07:12:02;;;;;;;31.30;16.08;;;4.30;71.30;;;;;;5110326;27;46929;-68
2022/11/30 07:14:29;;;;;;;36.30;15.70;;;4.40;71.30;;;;;;5106599;27;46481;-68
2022/11/30 07:16:55;;;;;;;30.37;15.27;;;4.50;71.10;;;;;;5103561;27;46492;-68
2022/11/30 07:19:20;;;;;;;30.85;16.08;;;4.50;70.80;;;;;;5106598;27;46649;-65
2022/11/30 07:21:46;;;;;;;28.93;14.50;;;4.50;70.60;;;;;;5105857;27;46733;-66
2022/11/30 07:26:59;;;;;;;20.57;10.77;;;4.40;71.20;;;;;;5101417;27;46466;-66
2022/11/30 07:29:24;;;;;;;19.13;10.30;;;4.40;71.30;;;;;;5103546;27;46551;-68
2022/11/30 07:31:51;;;;;;;18.43;9.50;;;4.40;71.20;;;;;;5103609;27;46392;-66
2022/11/30 07:34:17;;;;;;;17.90;9.00;;;4.30;70.90;;;;;;5103684;27;46478;-71
2022/11/30 07:36:43;;;;;;;18.00;9.83;;;4.30;71.10;;;;;;5108318;27;46515;-67
2022/11/30 07:39:09;;;;;;;17.73;8.43;;;4.30;70.90;;;;;;5111704;27;46460;-67
2022/11/30 07:41:34;;;;;;;19.60;9.50;;;4.30;70.50;;;;;;5101273;27;45962;-67
2022/11/30 07:44:02;;;;;;;18.90;10.80;;;4.20;70.40;;;;;;5108043;27;46288;-65
2022/11/30 07:46:28;;;;;;;21.90;10.13;;;4.30;70.40;;;;;;5103312;27;46443;-66
2022/11/30 07:48:53;;;;;;;19.03;9.60;;;4.40;70.10;;;;;;5102979;27;46629;-66
2022/11/30 07:51:20;;;;;;;19.63;10.40;;;4.40;70.10;;;;;;5103986;27;46397;-65
2022/11/30 07:53:46;;;;;;;20.47;10.63;;;4.40;69.80;;;;;;5100071;27;46413;-66
2022/11/30 07:56:14;;;;;;;17.23;10.20;;;4.60;68.50;;;;;;5101699;27;46541;-69
2022/11/30 07:58:41;;;;;;;26.15;11.80;;;4.60;69.40;;;;;;5102740;27;46582;-65
2022/11/30 08:01:13;;;;;;;20.13;10.63;;;4.70;69.10;;;;;;5104645;27;46392;-68
2022/11/30 08:03:39;;;;;;;18.60;10.17;;;4.70;68.80;;;;;;5095997;27;45962;-66
2022/11/30 08:06:08;;;;;;;20.90;11.17;;;4.70;68.50;;;;;;5099438;27;46733;-66
2022/11/30 08:08:36;;;;;;;19.77;11.38;;;4.80;68.40;;;;;;5097912;27;46649;-67
2022/11/30 08:11:03;;;;;;;22.90;10.97;;;4.90;68.20;;;;;;5104343;27;46540;-66
2022/11/30 08:13:28;;;;;;;20.23;10.33;;;5.00;68.20;;;;;;5105367;27;46391;-68
2022/11/30 08:15:54;;;;;;;19.60;10.43;;;5.00;68.20;;;;;;5107026;27;48231;-67
2022/11/30 08:18:20;;;;;;;19.90;10.50;;;5.00;68.30;;;;;;5107634;27;46367;-67
2022/11/30 08:20:45;;;;;;;17.13;10.40;;;5.00;68.20;;;;;;5108451;27;46538;-68
2022/11/30 08:23:11;;;;;;;22.27;11.93;;;5.00;68.10;;;;;;5107414;27;46614;-69
2022/11/30 08:25:37;;;;;;;22.63;11.17;;;5.00;68.30;;;;;;5106870;27;46345;-68
2022/11/30 08:28:04;;;;;;;22.10;11.93;;;5.00;67.90;;;;;;5109225;27;46395;-68
2022/11/30 08:30:29;;;;;;;24.00;11.97;;;5.10;68.00;;;;;;5105062;27;46452;-69
2022/11/30 08:32:55;;;;;;;24.60;11.97;;;5.20;67.80;;;;;;5105637;27;47211;-67
2022/11/30 08:35:21;;;;;;;21.90;12.10;;;5.10;67.60;;;;;;5104379;27;47464;-70
2022/11/30 08:37:47;;;;;;;21.80;10.70;;;5.20;67.60;;;;;;5100799;27;46447;-66
2022/11/30 08:40:13;;;;;;;25.40;11.63;;;5.10;67.20;;;;;;5105663;27;46442;-70
2022/11/30 08:42:38;;;;;;;21.67;11.70;;;5.10;67.70;;;;;;5106546;27;46455;-68
2022/11/30 08:45:04;;;;;;;26.37;13.90;;;5.20;67.60;;;;;;5104581;27;46479;-70
2022/11/30 08:47:30;;;;;;;24.07;12.33;;;5.30;67.50;;;;;;5105608;27;46352;-67
2022/11/30 08:49:56;;;;;;;22.40;11.70;;;5.40;67.20;;;;;;5104680;27;46304;-69
2022/11/30 08:52:22;;;;;;;28.87;14.50;;;5.50;67.20;;;;;;5103118;27;46333;-71
2022/11/30 08:54:48;;;;;;;30.67;13.83;;;5.50;66.80;;;;;;5104673;27;47355;-68
2022/11/30 08:57:16;;;;;;;21.40;10.93;;;5.50;66.80;;;;;;5105114;27;46352;-68
2022/11/30 08:59:41;;;;;;;23.67;13.83;;;5.50;66.80;;;;;;5104832;27;47425;-67
2022/11/30 09:02:15;;;;;;;37.03;15.03;;;5.50;67.10;;;;;;5109792;27;46460;-67
2022/11/30 09:04:41;;;;;;;39.50;18.43;;;5.60;66.80;;;;;;5105071;27;47886;-68
2022/11/30 09:07:08;;;;;;;70.40;30.97;;;5.60;66.40;;;;;;5105212;27;46793;-68
2022/11/30 09:09:34;;;;;;;25.57;10.80;;;5.70;66.20;;;;;;5108987;27;46436;-67
2022/11/30 09:12:00;;;;;;;38.47;18.97;;;5.50;66.70;;;;;;5104232;27;45988;-67
2022/11/30 09:14:26;;;;;;;49.90;24.17;;;5.60;66.70;;;;;;5106557;27;46445;-67
2022/11/30 09:16:52;;;;;;;89.20;36.90;;;5.60;66.60;;;;;;5106393;27;46638;-69
2022/11/30 09:19:18;;;;;;;383.57;136.10;;;5.70;66.40;;;;;;5106959;27;46373;-66
2022/11/30 09:21:44;;;;;;;169.13;56.87;;;5.80;66.30;;;;;;5105491;27;46485;-65
2022/11/30 09:24:09;;;;;;;80.57;32.80;;;5.60;66.40;;;;;;5101728;27;48130;-67
2022/11/30 09:26:35;;;;;;;28.43;12.73;;;5.70;66.50;;;;;;5104227;27;46491;-67
2022/11/30 09:29:01;;;;;;;133.67;44.57;;;5.70;66.30;;;;;;5108948;27;46436;-67
2022/11/30 09:31:27;;;;;;;48.23;21.40;;;5.60;66.40;;;;;;5110815;27;46419;-67
2022/11/30 09:33:55;;;;;;;50.50;20.13;;;5.50;66.60;;;;;;5107223;27;46441;-66
2022/11/30 09:36:22;;;;;;;51.57;22.80;;;5.40;65.80;;;;;;5104709;27;46570;-66
2022/11/30 09:38:48;;;;;;;36.80;16.73;;;5.40;66.90;;;;;;5106341;27;46313;-67
2022/11/30 09:41:32;;;;;;;65.97;29.00;;;5.40;66.80;;;;;;5110933;27;46329;-69
2022/11/30 09:44:13;;;;;;;107.50;50.53;;;5.40;66.70;;;;;;5132680;27;47899;-69
2022/11/30 09:47:03;;;;;;;58.27;28.33;;;5.40;66.50;;;;;;5112187;27;46289;-66
2022/11/30 09:49:47;;;;;;;25.20;12.77;;;5.30;66.70;;;;;;5112304;27;46665;-66
2022/11/30 09:52:27;;;;;;;18.33;10.17;;;5.30;66.60;;;;;;5112547;27;46432;-66
2022/11/30 09:54:55;;;;;;;19.37;9.47;;;5.20;66.50;;;;;;5105523;27;47633;-68
2022/11/30 09:57:51;;;;;;;15.48;8.60;;;5.10;66.90;;;;;;5105343;27;45946;-66
2022/11/30 10:00:22;;;;;;;14.03;7.00;;;5.20;66.70;;;;;;5104882;27;46396;-67
2022/11/30 10:02:50;;;;;;;13.40;6.80;;;5.30;66.40;;;;;;5107662;27;46010;-67
2022/11/30 10:05:18;;;;;;;17.97;8.47;;;5.40;65.80;;;;;;5101380;27;46394;-67
2022/11/30 10:08:19;;;;;;;12.40;6.87;;;5.30;65.70;;;;;;5102725;27;46452;-66
2022/11/30 10:11:01;;;;;;;16.57;7.40;;;5.30;65.50;;;;;;5106316;27;46776;-66
2022/11/30 10:13:52;;;;;;;14.13;7.77;;;5.20;65.70;;;;;;5106907;27;46531;-66
2022/11/30 10:16:28;;;;;;;13.03;8.03;;;5.10;64.90;;;;;;5103526;27;46340;-65
2022/11/30 10:19:09;;;;;;;18.23;9.27;;;5.10;65.80;;;;;;5108468;27;46299;-66
2022/11/30 10:22:04;;;;;;;17.10;8.53;;;5.20;65.80;;;;;;5106700;27;46366;-67
2022/11/30 10:24:42;;;;;;;16.00;7.70;;;5.20;65.40;;;;;;5034613;27;46582;-67
2022/11/30 10:27:17;;;;;;;14.80;8.33;;;5.20;65.40;;;;;;5105102;27;46508;-66
2022/11/30 10:29:43;;;;;;;15.30;8.67;;;5.10;65.80;;;;;;5104348;27;46508;-69
2022/11/30 10:32:35;;;;;;;14.17;8.60;;;5.20;65.40;;;;;;5106408;27;46660;-67
2022/11/30 10:35:31;;;;;;;14.30;7.93;;;5.20;65.30;;;;;;5099798;27;46472;-67
2022/11/30 10:37:58;;;;;;;19.20;8.70;;;5.10;65.30;;;;;;5102647;27;46627;-67
2022/11/30 10:40:42;;;;;;;13.57;8.20;;;5.10;65.50;;;;;;5105934;27;46641;-67
2022/11/30 10:43:28;;;;;;;16.07;8.87;;;5.20;65.20;;;;;;5135232;27;46480;-67
2022/11/30 10:45:54;;;;;;;15.33;8.33;;;5.20;64.70;;;;;;5100565;27;46402;-67
2022/11/30 10:48:29;;;;;;;18.00;8.90;;;5.10;64.10;;;;;;5102973;27;46482;-68
2022/11/30 10:50:55;;;;;;;17.37;8.37;;;5.10;64.30;;;;;;5089967;27;46521;-65
2022/11/30 10:53:21;;;;;;;13.70;8.07;;;5.00;64.60;;;;;;5103391;27;46569;-67
2022/11/30 10:56:06;;;;;;;22.57;10.30;;;4.90;64.80;;;;;;5103182;27;46418;-69
2022/11/30 10:58:57;;;;;;;19.03;9.70;;;4.90;64.70;;;;;;5106347;27;47326;-66
2022/11/30 11:01:34;;;;;;;16.60;9.13;;;5.00;64.50;;;;;;5103875;27;46400;-66
2022/11/30 11:04:07;;;;;;;17.03;9.83;;;5.00;64.30;;;;;;5105521;27;46698;-69
2022/11/30 11:06:32;;;;;;;21.27;10.33;;;5.10;64.20;;;;;;5102250;27;46669;-66
2022/11/30 11:09:18;;;;;;;15.20;8.90;;;5.00;64.30;;;;;;5103596;27;47564;-67
2022/11/30 11:11:44;;;;;;;12.18;7.15;;;5.00;64.00;;;;;;5101082;27;46518;-67
2022/11/30 11:14:27;;;;;;;11.03;6.80;;;5.00;64.40;;;;;;5099599;27;46602;-65
2022/11/30 11:17:02;;;;;;;21.97;12.83;;;5.00;64.30;;;;;;5104372;27;46470;-66
2022/11/30 11:19:42;;;;;;;12.90;7.57;;;5.00;64.10;;;;;;5105167;27;46438;-66
2022/11/30 11:22:20;;;;;;;12.48;7.05;;;5.00;63.90;;;;;;5102176;27;46671;-66
2022/11/30 11:24:47;;;;;;;19.75;11.00;;;4.90;63.90;;;;;;5105360;27;45857;-67
2022/11/30 11:27:24;;;;;;;15.43;8.63;;;4.90;65.50;;;;;;5102977;27;46420;-65
2022/11/30 11:30:25;;;;;;;16.10;8.00;;;4.90;64.00;;;;;;5108185;27;46481;-68
2022/11/30 11:33:12;;;;;;;14.33;8.10;;;4.90;63.80;;;;;;5093540;27;46407;-68
2022/11/30 11:35:42;;;;;;;17.30;8.57;;;4.80;63.80;;;;;;5102166;27;46774;-67
2022/11/30 11:38:29;;;;;;;21.03;10.10;;;4.70;63.80;;;;;;5103395;27;46405;-70
2022/11/30 11:41:01;;;;;;;13.23;7.20;;;4.80;64.10;;;;;;5107676;27;47659;-67
2022/11/30 11:43:30;;;;;;;15.90;9.88;;;4.70;64.10;;;;;;5104313;27;46457;-67
2022/11/30 11:46:11;;;;;;;13.63;8.30;;;4.70;64.20;;;;;;5101816;27;46450;-66
2022/11/30 11:48:55;;;;;;;15.73;8.17;;;4.80;64.00;;;;;;5102168;27;46568;-68
2022/11/30 11:51:35;;;;;;;12.70;7.53;;;4.90;64.00;;;;;;5105065;27;46447;-66
2022/11/30 11:54:21;;;;;;;17.65;10.25;;;4.90;63.60;;;;;;5100475;27;46431;-68
2022/11/30 11:56:48;;;;;;;12.60;7.47;;;4.90;63.50;;;;;;5101091;27;46427;-65
2022/11/30 11:59:21;;;;;;;13.97;7.80;;;5.00;63.60;;;;;;5104949;27;46675;-67
2022/11/30 12:01:49;;;;;;;15.80;7.70;;;4.90;63.50;;;;;;5106300;27;46544;-68
2022/11/30 12:04:32;;;;;;;15.20;8.90;;;4.80;63.50;;;;;;5102281;27;46459;-66
2022/11/30 12:07:03;;;;;;;17.47;9.80;;;4.90;63.50;;;;;;5101423;27;46451;-65
2022/11/30 12:09:35;;;;;;;15.83;8.70;;;4.90;63.10;;;;;;5098886;27;46486;-66
2022/11/30 12:12:01;;;;;;;15.87;8.40;;;4.90;63.20;;;;;;5089492;27;48295;-67
2022/11/30 12:14:28;;;;;;;14.63;7.70;;;5.00;63.10;;;;;;5099687;27;46793;-67
2022/11/30 12:17:12;;;;;;;17.80;10.47;;;5.10;62.80;;;;;;5102616;27;46520;-67
2022/11/30 12:19:52;;;;;;;18.97;11.17;;;5.20;62.70;;;;;;5104458;27;46482;-68
2022/11/30 12:22:54;;;;;;;30.80;18.10;;;5.20;62.30;;;;;;5102938;27;46482;-68
2022/11/30 12:25:29;;;;;;;32.63;15.63;;;5.30;61.90;;;;;;5096935;27;46779;-66
2022/11/30 12:28:13;;;;;;;18.00;9.03;;;5.30;61.40;;;;;;5103107;27;46548;-66
2022/11/30 12:30:41;;;;;;;13.30;8.37;;;5.30;61.40;;;;;;5106544;27;46481;-65
2022/11/30 12:33:38;;;;;;;16.50;9.43;;;5.20;61.30;;;;;;5102727;27;46496;-66
2022/11/30 12:36:25;;;;;;;15.17;8.17;;;5.30;61.30;;;;;;5103120;27;47323;-67
2022/11/30 12:39:03;;;;;;;21.50;11.37;;;5.20;61.50;;;;;;5099642;27;46516;-68
2022/11/30 12:41:58;;;;;;;139.13;58.63;;;5.20;61.30;;;;;;5102765;27;46184;-67
2022/11/30 12:45:07;;;;;;;16.70;9.57;;;5.30;61.30;;;;;;5099538;27;46476;-67
2022/11/30 12:47:42;;;;;;;16.40;8.80;;;5.20;61.30;;;;;;5061387;27;46857;-68
2022/11/30 12:50:34;;;;;;;15.87;8.43;;;5.20;61.30;;;;;;5103860;27;46363;-66
2022/11/30 12:53:18;;;;;;;18.10;8.87;;;5.20;61.30;;;;;;5108042;27;46212;-66
2022/11/30 12:56:00;;;;;;;19.73;10.10;;;5.20;61.30;;;;;;5100632;27;46382;-66